Time;durP1;ratioP1;P1;durP2;ratioP2;P2;SDS_P1;SDS_P2;PMS_P1;PMS_P2;Temp;Humidity;BMP_temperature;BMP_pressure;BME280_temperature;BME280_humidity;BME280_pressure;Samples;Min_cycle;Max_cycle;Signal;HPM_P1;HPM_P2
2021/12/31 00:00:04;;;;;;;;;;;13.60;99.90;;;;;;5074091;28;20237;-45
2021/12/31 00:02:30;;;;;;;;;;;13.60;99.90;;;;;;5074610;28;19912;-44
2021/12/31 00:04:56;;;;;;;;;;;13.50;99.90;;;;;;5073606;28;19961;-45
2021/12/31 00:07:21;;;;;;;;;;;13.60;99.90;;;;;;5073880;28;19948;-44
2021/12/31 00:09:47;;;;;;;;;;;13.50;99.90;;;;;;5074484;28;20371;-44
2021/12/31 00:12:12;;;;;;;;;;;13.60;99.90;;;;;;5074315;28;19917;-45
2021/12/31 00:14:38;;;;;;;;;;;13.60;99.90;;;;;;5073783;28;20336;-46
2021/12/31 00:17:04;;;;;;;;;;;13.60;99.90;;;;;;5074325;28;19978;-44
2021/12/31 00:19:32;;;;;;;;;;;13.60;99.90;;;;;;5073270;28;19927;-45
2021/12/31 00:21:59;;;;;;;;;;;13.70;99.90;;;;;;5073629;28;19920;-46
2021/12/31 00:24:27;;;;;;;;;;;13.70;99.90;;;;;;5074215;28;19908;-45
2021/12/31 00:26:52;;;;;;;;;;;13.70;99.90;;;;;;5073521;28;19912;-45
2021/12/31 00:29:18;;;;;;;;;;;13.60;99.90;;;;;;5074153;28;19915;-44
2021/12/31 00:31:43;;;;;;;;;;;13.60;99.90;;;;;;5074005;28;19908;-45
2021/12/31 00:34:09;;;;;;;;;;;13.60;99.90;;;;;;5073432;28;19915;-45
2021/12/31 00:36:41;;;;;;;;;;;13.60;99.90;;;;;;5073922;28;19952;-45
2021/12/31 00:39:07;;;;;;;;;;;13.60;99.90;;;;;;5073747;28;20374;-46
2021/12/31 00:41:32;;;;;;;;;;;13.70;99.90;;;;;;5072801;28;19912;-45
2021/12/31 00:43:58;;;;;;;;;;;13.70;99.90;;;;;;5073583;28;20279;-45
2021/12/31 00:46:23;;;;;;;;;;;13.60;99.90;;;;;;5073922;28;19909;-45
2021/12/31 00:48:49;;;;;;;;;;;13.70;99.90;;;;;;5073239;28;19909;-44
2021/12/31 00:51:14;;;;;;;;;;;13.60;99.90;;;;;;5073765;28;19955;-48
2021/12/31 00:53:39;;;;;;;;;;;13.70;99.90;;;;;;5073722;28;19923;-45
2021/12/31 00:56:05;;;;;;;;;;;13.70;99.90;;;;;;5073209;28;19908;-45
2021/12/31 00:58:30;;;;;;;;;;;13.70;99.90;;;;;;5073668;28;19912;-45
2021/12/31 01:00:56;;;;;;;;;;;13.70;99.90;;;;;;5073328;28;19928;-45
2021/12/31 01:03:21;;;;;;;;;;;13.70;99.90;;;;;;5073091;28;20507;-45
2021/12/31 01:05:47;;;;;;;;;;;13.70;99.90;;;;;;5073636;28;20538;-45
2021/12/31 01:08:12;;;;;;;;;;;13.70;99.90;;;;;;5073620;28;19908;-44
2021/12/31 01:10:38;;;;;;;;;;;13.70;99.90;;;;;;5072965;28;19908;-45
2021/12/31 01:13:09;;;;;;;;;;;13.70;99.90;;;;;;5073411;28;19908;-45
2021/12/31 01:15:38;;;;;;;;;;;13.70;99.90;;;;;;5072826;28;20057;-49
2021/12/31 01:18:19;;;;;;;;;;;13.70;99.90;;;;;;5073441;28;20340;-46
2021/12/31 01:20:44;;;;;;;;;;;13.70;99.90;;;;;;5073046;28;19947;-45
2021/12/31 01:23:10;;;;;;;;;;;13.70;99.90;;;;;;5072964;28;20574;-45
2021/12/31 01:25:36;;;;;;;;;;;13.80;99.90;;;;;;5072945;28;19951;-45
2021/12/31 01:28:02;;;;;;;;;;;13.80;99.90;;;;;;5073352;28;19915;-44
2021/12/31 01:30:27;;;;;;;;;;;13.80;99.90;;;;;;5072818;28;19909;-45
2021/12/31 01:32:55;;;;;;;;;;;13.80;99.90;;;;;;5072994;28;19912;-45
2021/12/31 01:35:20;;;;;;;;;;;13.80;99.90;;;;;;5073425;28;19912;-45
2021/12/31 01:37:46;;;;;;;;;;;13.80;99.90;;;;;;5072741;28;19909;-45
2021/12/31 01:40:11;;;;;;;;;;;13.80;99.90;;;;;;5073209;28;19917;-45
2021/12/31 01:42:37;;;;;;;;;;;13.80;99.90;;;;;;5073222;28;19954;-46
2021/12/31 01:45:13;;;;;;;;;;;13.80;99.90;;;;;;5072585;28;19915;-46
2021/12/31 01:47:55;;;;;;;;;;;13.80;99.90;;;;;;5073137;28;19948;-47
2021/12/31 01:50:22;;;;;;;;;;;13.80;99.90;;;;;;5072911;28;19912;-45
2021/12/31 01:52:47;;;;;;;;;;;13.80;99.90;;;;;;5072601;28;20386;-45
2021/12/31 01:55:13;;;;;;;;;;;13.80;99.90;;;;;;5073057;28;19915;-46
2021/12/31 01:57:42;;;;;;;;;;;13.80;99.90;;;;;;5072202;28;19913;-48
2021/12/31 02:00:08;;;;;;;;;;;13.80;99.90;;;;;;5072568;28;19970;-46
2021/12/31 02:02:35;;;;;;;;;;;13.80;99.90;;;;;;5072967;28;19909;-45
2021/12/31 02:05:02;;;;;;;;;;;13.80;99.90;;;;;;5072200;28;19916;-45
2021/12/31 02:07:27;;;;;;;;;;;13.80;99.90;;;;;;5072749;28;19913;-45
2021/12/31 02:09:54;;;;;;;;;;;13.80;99.90;;;;;;5072944;28;19908;-49
2021/12/31 02:12:22;;;;;;;;;;;13.80;99.90;;;;;;5072344;28;19909;-45
2021/12/31 02:14:49;;;;;;;;;;;13.80;99.90;;;;;;5072879;28;19913;-46
2021/12/31 02:17:15;;;;;;;;;;;13.80;99.90;;;;;;5073013;28;19962;-46
2021/12/31 02:19:43;;;;;;;;;;;13.90;99.90;;;;;;5071935;28;19924;-47
2021/12/31 02:22:09;;;;;;;;;;;13.90;99.90;;;;;;5072811;28;19916;-47
2021/12/31 02:24:36;;;;;;;;;;;13.90;99.90;;;;;;5072781;28;19909;-45
2021/12/31 02:27:02;;;;;;;;;;;13.90;99.90;;;;;;5072968;28;19915;-46
2021/12/31 02:29:27;;;;;;;;;;;13.90;99.90;;;;;;5076328;28;19909;-45
2021/12/31 02:31:53;;;;;;;;;;;14.00;99.90;;;;;;5075983;28;19919;-48
2021/12/31 02:34:19;;;;;;;;;;;14.00;99.90;;;;;;5075683;28;20401;-45
2021/12/31 02:36:44;;;;;;;;;;;14.00;99.90;;;;;;5076124;28;19915;-45
2021/12/31 02:39:10;;;;;;;;;;;14.00;99.90;;;;;;5076029;28;19908;-45
2021/12/31 02:41:35;;;;;;;;;;;14.00;99.90;;;;;;5075416;28;19999;-46
2021/12/31 02:44:01;;;;;;;;;;;14.00;99.90;;;;;;5075689;28;19913;-49
2021/12/31 02:46:26;;;;;;;;;;;13.90;99.90;;;;;;5075669;28;19909;-45
2021/12/31 02:48:56;;;;;;;;;;;14.00;99.90;;;;;;5074893;28;19932;-46
2021/12/31 02:51:23;;;;;;;;;;;13.90;99.90;;;;;;5073105;28;19908;-45
2021/12/31 02:53:51;;;;;;;;;;;14.00;99.90;;;;;;5075456;28;19919;-46
2021/12/31 02:56:17;;;;;;;;;;;14.00;99.90;;;;;;5075042;28;19913;-46
2021/12/31 02:58:43;;;;;;;;;;;13.90;99.90;;;;;;5075815;28;19909;-45
2021/12/31 03:01:08;;;;;;;;;;;14.00;99.90;;;;;;5075128;28;19916;-46
2021/12/31 03:03:35;;;;;;;;;;;14.00;99.90;;;;;;5075834;28;19908;-46
2021/12/31 03:06:00;;;;;;;;;;;13.90;99.90;;;;;;5075697;28;19912;-47
2021/12/31 03:08:29;;;;;;;;;;;13.90;99.90;;;;;;5075213;28;20747;-46
2021/12/31 03:10:55;;;;;;;;;;;13.90;99.90;;;;;;5075665;28;19913;-45
2021/12/31 03:13:21;;;;;;;;;;;13.90;99.90;;;;;;5075569;28;20455;-47
2021/12/31 03:15:47;;;;;;;;;;;13.90;99.90;;;;;;5075089;28;19915;-46
2021/12/31 03:18:13;;;;;;;;;;;13.90;99.90;;;;;;5075531;28;19909;-45
2021/12/31 03:20:47;;;;;;;;;;;13.90;99.90;;;;;;5074997;28;19928;-46
2021/12/31 03:23:12;;;;;;;;;;;14.00;99.90;;;;;;5074541;28;19912;-46
2021/12/31 03:25:38;;;;;;;;;;;14.00;99.90;;;;;;5075304;28;19916;-46
2021/12/31 03:28:04;;;;;;;;;;;14.00;99.90;;;;;;5075378;28;19908;-49
2021/12/31 03:30:29;;;;;;;;;;;14.10;99.90;;;;;;5074767;28;19916;-48
2021/12/31 03:32:55;;;;;;;;;;;14.10;99.90;;;;;;5075222;28;19909;-46
2021/12/31 03:35:20;;;;;;;;;;;14.10;99.90;;;;;;5075061;28;20023;-46
2021/12/31 03:37:46;;;;;;;;;;;14.10;99.90;;;;;;5074552;28;19915;-46
2021/12/31 03:40:11;;;;;;;;;;;14.10;99.90;;;;;;5075059;28;19916;-46
2021/12/31 03:42:37;;;;;;;;;;;14.10;99.90;;;;;;5074889;28;19928;-46
2021/12/31 03:45:03;;;;;;;;;;;14.10;99.90;;;;;;5074314;28;19988;-46
2021/12/31 03:47:29;;;;;;;;;;;14.10;99.90;;;;;;5074946;28;19963;-48
2021/12/31 03:49:54;;;;;;;;;;;14.10;99.90;;;;;;5074568;28;20364;-46
2021/12/31 03:52:19;;;;;;;;;;;14.10;99.90;;;;;;5073844;28;20367;-47
2021/12/31 03:54:45;;;;;;;;;;;14.20;99.90;;;;;;5074716;28;19916;-47
2021/12/31 03:57:10;;;;;;;;;;;14.10;99.90;;;;;;5074665;28;19920;-47
2021/12/31 03:59:36;;;;;;;;;;;14.10;99.90;;;;;;5073957;28;19912;-47
2021/12/31 04:02:01;;;;;;;;;;;14.10;99.90;;;;;;5074660;28;19909;-47
2021/12/31 04:04:27;;;;;;;;;;;14.20;99.90;;;;;;5074131;28;19947;-47
2021/12/31 04:06:52;;;;;;;;;;;14.20;99.90;;;;;;5074380;28;19908;-47
2021/12/31 04:09:18;;;;;;;;;;;14.20;99.90;;;;;;5074528;28;20304;-46
2021/12/31 04:11:43;;;;;;;;;;;14.10;99.90;;;;;;5073515;28;19917;-46
2021/12/31 04:14:09;;;;;;;;;;;14.10;99.90;;;;;;5074427;28;20256;-47
2021/12/31 04:16:34;;;;;;;;;;;14.10;99.90;;;;;;5074449;28;19909;-49
2021/12/31 04:19:00;;;;;;;;;;;14.10;99.90;;;;;;5073489;28;19997;-49
2021/12/31 04:21:26;;;;;;;;;;;14.00;99.90;;;;;;5074140;28;20263;-46
2021/12/31 04:24:04;;;;;;;;;;;14.10;99.90;;;;;;5074058;28;20325;-47
2021/12/31 04:26:30;;;;;;;;;;;14.10;99.90;;;;;;5073686;28;19909;-47
2021/12/31 04:28:56;;;;;;;;;;;14.20;99.90;;;;;;5073951;28;19932;-47
2021/12/31 04:31:21;;;;;;;;;;;14.20;99.90;;;;;;5073814;28;19924;-46
2021/12/31 04:33:47;;;;;;;;;;;14.20;99.90;;;;;;5073493;28;19915;-46
2021/12/31 04:36:12;;;;;;;;;;;14.10;99.90;;;;;;5073999;28;20267;-47
2021/12/31 04:38:38;;;;;;;;;;;14.10;99.90;;;;;;5073923;28;19914;-47
2021/12/31 04:41:03;;;;;;;;;;;14.10;99.90;;;;;;5073369;28;19943;-46
2021/12/31 04:43:29;;;;;;;;;;;14.10;99.90;;;;;;5073734;28;19916;-46
2021/12/31 04:45:54;;;;;;;;;;;14.10;99.90;;;;;;5073826;28;19915;-46
2021/12/31 04:48:20;;;;;;;;;;;14.10;99.90;;;;;;5073233;28;19908;-47
2021/12/31 04:50:45;;;;;;;;;;;14.10;99.90;;;;;;5071875;28;19961;-46
2021/12/31 04:53:10;;;;;;;;;;;14.10;99.90;;;;;;5073140;28;20371;-48
2021/12/31 04:55:36;;;;;;;;;;;14.10;99.90;;;;;;5072614;28;19978;-48
2021/12/31 04:58:02;;;;;;;;;;;14.10;99.90;;;;;;5073124;28;19908;-47
2021/12/31 05:00:27;;;;;;;;;;;14.10;99.90;;;;;;5072978;28;20351;-47
2021/12/31 05:02:52;;;;;;;;;;;14.10;99.90;;;;;;5072690;28;19909;-47
2021/12/31 05:05:18;;;;;;;;;;;14.10;99.90;;;;;;5073488;28;19915;-50
2021/12/31 05:07:43;;;;;;;;;;;14.10;99.90;;;;;;5073106;28;19909;-47
2021/12/31 05:10:09;;;;;;;;;;;14.20;99.90;;;;;;5073252;28;20298;-51
2021/12/31 05:12:37;;;;;;;;;;;14.20;99.90;;;;;;5073453;28;19919;-46
2021/12/31 05:15:06;;;;;;;;;;;14.20;99.90;;;;;;5073079;28;19919;-49
2021/12/31 05:17:31;;;;;;;;;;;14.20;99.90;;;;;;5073375;28;19919;-49
2021/12/31 05:19:57;;;;;;;;;;;14.20;99.90;;;;;;5073148;28;19924;-49
2021/12/31 05:22:22;;;;;;;;;;;14.20;99.90;;;;;;5072936;28;19915;-47
2021/12/31 05:24:47;;;;;;;;;;;14.20;99.90;;;;;;5073427;28;19909;-47
2021/12/31 05:27:13;;;;;;;;;;;14.20;99.90;;;;;;5073387;28;19944;-47
2021/12/31 05:29:38;;;;;;;;;;;14.20;99.90;;;;;;5072548;28;20430;-49
2021/12/31 05:32:04;;;;;;;;;;;14.20;99.90;;;;;;5073232;28;19927;-48
2021/12/31 05:34:29;;;;;;;;;;;14.30;99.90;;;;;;5073307;28;19913;-49
2021/12/31 05:36:55;;;;;;;;;;;14.30;99.90;;;;;;5072746;28;19915;-50
2021/12/31 05:39:20;;;;;;;;;;;14.30;99.90;;;;;;5073110;28;19912;-48
2021/12/31 05:41:46;;;;;;;;;;;14.30;99.90;;;;;;5073017;28;19908;-47
2021/12/31 05:44:11;;;;;;;;;;;14.30;99.90;;;;;;5072670;28;20014;-51
2021/12/31 05:46:37;;;;;;;;;;;14.40;99.90;;;;;;5073113;28;19995;-50
2021/12/31 05:49:03;;;;;;;;;;;14.30;99.90;;;;;;5073281;28;19931;-52
2021/12/31 05:51:30;;;;;;;;;;;14.30;99.90;;;;;;5072497;28;19913;-51
2021/12/31 05:53:55;;;;;;;;;;;14.30;99.90;;;;;;5073086;28;19908;-49
2021/12/31 05:56:21;;;;;;;;;;;14.30;99.90;;;;;;5073105;28;19919;-49
2021/12/31 05:58:46;;;;;;;;;;;14.30;99.90;;;;;;5071952;28;19914;-50
2021/12/31 06:01:11;;;;;;;;;;;14.30;99.90;;;;;;5072935;28;19916;-48
2021/12/31 06:03:37;;;;;;;;;;;14.30;99.90;;;;;;5076112;28;19951;-48
2021/12/31 06:06:02;;;;;;;;;;;14.30;99.90;;;;;;5076291;28;19908;-50
2021/12/31 06:08:28;;;;;;;;;;;14.30;99.90;;;;;;5076837;28;19916;-52
2021/12/31 06:10:53;;;;;;;;;;;14.20;99.90;;;;;;5076773;28;19909;-52
2021/12/31 06:13:19;;;;;;;;;;;14.20;99.90;;;;;;5076127;28;19909;-53
2021/12/31 06:15:47;;;;;;;;;;;14.10;99.90;;;;;;5076752;28;20248;-48
2021/12/31 06:18:12;;;;;;;;;;;14.10;99.90;;;;;;5076031;28;19909;-52
2021/12/31 06:20:40;;;;;;;;;;;14.10;99.90;;;;;;5075693;28;19920;-52
2021/12/31 06:23:05;;;;;;;;;;;14.00;99.90;;;;;;5076343;28;20015;-47
2021/12/31 06:25:31;;;;;;;;;;;14.00;99.90;;;;;;5075998;28;20404;-48
2021/12/31 06:27:56;;;;;;;;;;;14.00;99.90;;;;;;5076392;28;19909;-50
2021/12/31 06:30:22;;;;;;;;;;;14.00;99.90;;;;;;5076302;28;19909;-50
2021/12/31 06:32:47;;;;;;;;;;;14.00;99.90;;;;;;5075808;28;19931;-48
2021/12/31 06:35:13;;;;;;;;;;;14.00;99.90;;;;;;5076417;28;19913;-52
2021/12/31 06:37:38;;;;;;;;;;;14.10;99.90;;;;;;5076334;28;19932;-49
2021/12/31 06:40:06;;;;;;;;;;;14.10;99.90;;;;;;5075664;28;19916;-47
2021/12/31 06:42:33;;;;;;;;;;;14.10;99.90;;;;;;5076158;28;19913;-50
2021/12/31 06:44:59;;;;;;;;;;;14.10;99.90;;;;;;5076010;28;19908;-50
2021/12/31 06:47:24;;;;;;;;;;;14.10;99.90;;;;;;5074754;28;19966;-52
2021/12/31 06:49:50;;;;;;;;;;;14.20;99.90;;;;;;5075754;28;19913;-49
2021/12/31 06:52:15;;;;;;;;;;;14.10;99.90;;;;;;5076153;28;19943;-51
2021/12/31 06:54:40;;;;;;;;;;;14.10;99.90;;;;;;5075481;28;19913;-51
2021/12/31 06:57:06;;;;;;;;;;;14.00;99.90;;;;;;5075978;28;19909;-53
2021/12/31 06:59:31;;;;;;;;;;;14.00;99.90;;;;;;5075861;28;19957;-54
2021/12/31 07:01:57;;;;;;;;;;;14.00;99.90;;;;;;5075362;28;19920;-52
2021/12/31 07:04:23;;;;;;;;;;;14.00;99.90;;;;;;5075907;28;19908;-53
2021/12/31 07:06:49;;;;;;;;;;;14.00;99.90;;;;;;5075269;28;20476;-53
2021/12/31 07:09:15;;;;;;;;;;;14.00;99.90;;;;;;5075231;28;20264;-52
2021/12/31 07:11:40;;;;;;;;;;;14.00;99.90;;;;;;5075427;28;19908;-53
2021/12/31 07:14:05;;;;;;;;;;;13.90;99.90;;;;;;5075238;28;19908;-53
2021/12/31 07:16:32;;;;;;;;;;;13.90;99.90;;;;;;5074949;28;19962;-53
2021/12/31 07:18:57;;;;;;;;;;;13.90;99.90;;;;;;5075513;28;19921;-55
2021/12/31 07:21:23;;;;;;;;;;;13.90;99.90;;;;;;5074590;28;19926;-52
2021/12/31 07:23:48;;;;;;;;;;;13.90;99.90;;;;;;5075463;28;20249;-53
2021/12/31 07:26:14;;;;;;;;;;;13.90;99.90;;;;;;5075222;28;20351;-55
2021/12/31 07:28:39;;;;;;;;;;;13.90;99.90;;;;;;5074529;28;19974;-55
2021/12/31 07:31:06;;;;;;;;;;;13.80;99.90;;;;;;5075347;28;19920;-55
2021/12/31 07:33:32;;;;;;;;;;;13.80;99.90;;;;;;5075246;28;19919;-51
2021/12/31 07:35:59;;;;;;;;;;;13.80;99.90;;;;;;5074673;28;19913;-54
2021/12/31 07:38:31;;;;;;;;;;;13.80;99.90;;;;;;5075203;28;19909;-53
2021/12/31 07:40:57;;;;;;;;;;;13.70;99.90;;;;;;5075024;28;19970;-52
2021/12/31 07:43:22;;;;;;;;;;;13.70;99.90;;;;;;5074191;28;19912;-53
2021/12/31 07:45:48;;;;;;;;;;;13.70;99.90;;;;;;5075016;28;19916;-52
2021/12/31 07:48:14;;;;;;;;;;;13.80;99.90;;;;;;5074718;28;19919;-54
2021/12/31 07:50:39;;;;;;;;;;;13.80;99.90;;;;;;5073815;28;19913;-54
2021/12/31 07:53:05;;;;;;;;;;;13.70;99.90;;;;;;5074393;28;19909;-54
2021/12/31 07:55:31;;;;;;;;;;;13.70;99.90;;;;;;5074031;28;19999;-54
2021/12/31 07:57:56;;;;;;;;;;;13.70;99.90;;;;;;5073548;28;19962;-52
2021/12/31 08:00:22;;;;;;;;;;;13.70;99.90;;;;;;5073900;28;20362;-53
2021/12/31 08:02:48;;;;;;;;;;;13.60;99.90;;;;;;5073985;28;19909;-54
2021/12/31 08:05:14;;;;;;;;;;;13.60;99.90;;;;;;5073528;28;19954;-52
2021/12/31 08:07:39;;;;;;;;;;;13.60;99.90;;;;;;5073824;28;19908;-54
2021/12/31 08:10:05;;;;;;;;;;;13.60;99.90;;;;;;5073900;28;19915;-53
2021/12/31 08:12:33;;;;;;;;;;;13.60;99.90;;;;;;5073268;28;19961;-53
2021/12/31 08:14:58;;;;;;;;;;;13.60;99.90;;;;;;5074601;28;19931;-54
2021/12/31 08:17:24;;;;;;;;;;;13.60;99.90;;;;;;5074372;28;20366;-55
2021/12/31 08:19:49;;;;;;;;;;;13.60;99.90;;;;;;5073468;28;20378;-54
2021/12/31 08:22:14;;;;;;;;;;;13.60;99.90;;;;;;5074239;28;20354;-52
2021/12/31 08:24:40;;;;;;;;;;;13.60;99.90;;;;;;5072675;28;20275;-53
2021/12/31 08:27:06;;;;;;;;;;;13.70;99.90;;;;;;5073372;28;19981;-55
2021/12/31 08:29:31;;;;;;;;;;;13.70;99.90;;;;;;5072213;28;19912;-52
2021/12/31 08:31:56;;;;;;;;;;;13.70;99.90;;;;;;5071181;28;19922;-52
2021/12/31 08:34:22;;;;;;;;;;;13.80;99.90;;;;;;5071689;28;19996;-54
2021/12/31 08:36:47;;;;;;;;;;;13.80;99.90;;;;;;5071886;28;19913;-59
2021/12/31 08:39:13;;;;;;;;;;;13.80;99.90;;;;;;5071278;28;19908;-54
2021/12/31 08:41:39;;;;;;;;;;;13.80;99.90;;;;;;5072446;28;19923;-54
2021/12/31 08:44:05;;;;;;;;;;;13.80;99.90;;;;;;5072694;28;19909;-53
2021/12/31 08:46:31;;;;;;;;;;;13.90;99.90;;;;;;5072852;28;19909;-53
2021/12/31 08:48:56;;;;;;;;;;;13.90;99.90;;;;;;5072928;28;19908;-53
2021/12/31 08:51:23;;;;;;;;;;;13.90;99.90;;;;;;5073263;28;19912;-54
2021/12/31 08:53:48;;;;;;;;;;;13.90;99.90;;;;;;5072475;28;19942;-54
2021/12/31 08:56:14;;;;;;;;;;;13.90;99.90;;;;;;5072880;28;20263;-54
2021/12/31 08:58:39;;;;;;;;;;;13.90;99.90;;;;;;5072976;28;19908;-51
2021/12/31 09:01:05;;;;;;;;;;;13.90;99.90;;;;;;5072418;28;19920;-54
2021/12/31 09:03:30;;;;;;;;;;;13.90;99.90;;;;;;5073032;28;20320;-54
2021/12/31 09:05:55;;;;;;;;;;;13.90;99.90;;;;;;5071656;28;20303;-54
2021/12/31 09:08:23;;;;;;;;;;;13.90;99.90;;;;;;5072370;28;19935;-52
2021/12/31 09:10:48;;;;;;;;;;;13.80;99.90;;;;;;5072329;28;19909;-53
2021/12/31 09:13:14;;;;;;;;;;;13.90;99.90;;;;;;5072939;28;19916;-54
2021/12/31 09:15:39;;;;;;;;;;;13.90;99.90;;;;;;5072318;28;19916;-55
2021/12/31 09:18:05;;;;;;;;;;;13.90;99.90;;;;;;5072520;28;20077;-51
2021/12/31 09:20:30;;;;;;;;;;;13.90;99.90;;;;;;5072542;28;19924;-52
2021/12/31 09:22:56;;;;;;;;;;;13.90;99.90;;;;;;5071790;28;19908;-54
2021/12/31 09:25:23;;;;;;;;;;;13.90;99.90;;;;;;5071827;28;19916;-55
2021/12/31 09:27:48;;;;;;;;;;;13.80;99.90;;;;;;5071723;28;19924;-52
2021/12/31 09:30:14;;;;;;;;;;;13.80;99.90;;;;;;5071861;28;19912;-54
2021/12/31 09:32:39;;;;;;;;;;;13.80;99.90;;;;;;5072215;28;19954;-53
2021/12/31 09:35:06;;;;;;;;;;;13.90;99.90;;;;;;5071392;28;19909;-54
2021/12/31 09:37:32;;;;;;;;;;;13.90;99.90;;;;;;5075295;28;19943;-54
2021/12/31 09:39:58;;;;;;;;;;;13.90;99.90;;;;;;5075683;28;19916;-54
2021/12/31 09:42:23;;;;;;;;;;;13.90;99.90;;;;;;5075441;28;20434;-54
2021/12/31 09:44:48;;;;;;;;;;;13.90;99.90;;;;;;5075889;28;19991;-53
2021/12/31 09:47:14;;;;;;;;;;;13.90;99.90;;;;;;5076425;28;19956;-54
2021/12/31 09:49:40;;;;;;;;;;;13.90;99.90;;;;;;5075965;28;19927;-52
2021/12/31 09:52:09;;;;;;;;;;;13.90;99.90;;;;;;5075604;28;19924;-54
2021/12/31 09:54:35;;;;;;;;;;;13.90;99.90;;;;;;5076506;28;19909;-53
2021/12/31 09:57:02;;;;;;;;;;;13.90;99.90;;;;;;5075653;28;19916;-54
2021/12/31 09:59:28;;;;;;;;;;;14.00;99.90;;;;;;5076510;28;19908;-56
2021/12/31 10:01:54;;;;;;;;;;;13.90;99.90;;;;;;5076061;28;19936;-53
2021/12/31 10:04:20;;;;;;;;;;;13.90;99.90;;;;;;5075495;28;19913;-54
2021/12/31 10:07:06;;;;;;;;;;;13.80;99.90;;;;;;5075350;28;19917;-54
2021/12/31 10:09:32;;;;;;;;;;;13.90;99.90;;;;;;5072949;28;20250;-54
2021/12/31 10:11:58;;;;;;;;;;;13.90;99.90;;;;;;5074883;28;19913;-54
2021/12/31 10:14:33;;;;;;;;;;;13.80;99.90;;;;;;5073412;28;19918;-54
2021/12/31 10:16:59;;;;;;;;;;;13.80;99.90;;;;;;5054341;28;19909;-55
2021/12/31 10:19:25;;;;;;;;;;;13.70;99.90;;;;;;5053696;28;19970;-54
2021/12/31 10:21:51;;;;;;;;;;;13.70;99.90;;;;;;5054582;28;19917;-52
2021/12/31 10:24:19;;;;;;;;;;;13.70;99.90;;;;;;5056172;28;19912;-54
2021/12/31 10:26:45;;;;;;;;;;;13.80;99.90;;;;;;5056436;28;20423;-54
2021/12/31 10:29:10;;;;;;;;;;;13.80;99.90;;;;;;5056443;28;19999;-54
2021/12/31 10:31:43;;;;;;;;;;;13.80;99.90;;;;;;5055883;28;19954;-54
2021/12/31 10:34:23;;;;;;;;;;;13.80;99.90;;;;;;5056236;28;20348;-54
2021/12/31 10:36:49;;;;;;;;;;;13.80;99.90;;;;;;5072325;28;20326;-54
2021/12/31 10:39:19;;;;;;;;;;;13.80;99.90;;;;;;5075767;28;19962;-54
2021/12/31 10:41:48;;;;;;;;;;;13.70;99.90;;;;;;5076105;28;20003;-49
2021/12/31 10:44:14;;;;;;;;;;;13.70;99.90;;;;;;5076225;28;19909;-53
2021/12/31 10:46:40;;;;;;;;;;;13.70;99.90;;;;;;5075597;28;19916;-52
2021/12/31 10:49:09;;;;;;;;;;;13.70;99.90;;;;;;5075325;28;20359;-55
2021/12/31 10:51:39;;;;;;;;;;;13.70;99.90;;;;;;5076159;28;19932;-52
2021/12/31 10:54:19;;;;;;;;;;;13.70;99.90;;;;;;5075475;28;20015;-54
2021/12/31 10:56:44;;;;;;;;;;;13.70;99.90;;;;;;5075914;28;20339;-54
2021/12/31 10:59:10;;;;;;;;;;;13.70;99.90;;;;;;5075832;28;19917;-54
2021/12/31 11:01:35;;;;;;;;;;;13.80;99.90;;;;;;5075282;28;20011;-53
2021/12/31 11:04:01;;;;;;;;;;;13.70;99.90;;;;;;5075801;28;19951;-52
2021/12/31 11:06:26;;;;;;;;;;;13.70;99.90;;;;;;5072161;28;19920;-53
2021/12/31 11:08:54;;;;;;;;;;;13.70;99.90;;;;;;5075396;28;19916;-54
2021/12/31 11:11:21;;;;;;;;;;;13.60;99.90;;;;;;5075796;28;19908;-54
2021/12/31 11:13:48;;;;;;;;;;;13.60;99.90;;;;;;5075107;28;19909;-52
2021/12/31 11:16:14;;;;;;;;;;;13.60;99.90;;;;;;5075663;28;19930;-48
2021/12/31 11:18:40;;;;;;;;;;;13.60;99.90;;;;;;5075686;28;20411;-46
2021/12/31 11:21:08;;;;;;;;;;;13.50;99.90;;;;;;5074634;28;19921;-45
2021/12/31 11:23:34;;;;;;;;;;;13.40;99.90;;;;;;5075355;28;19908;-49
2021/12/31 11:26:00;;;;;;;;;;;13.30;99.90;;;;;;5075367;28;20434;-48
2021/12/31 11:28:27;;;;;;;;;;;13.30;99.90;;;;;;5073989;28;19951;-48
2021/12/31 11:30:53;;;;;;;;;;;13.20;99.90;;;;;;5075146;28;19951;-45
2021/12/31 11:33:24;;;;;;;;;;;13.20;99.90;;;;;;5074353;28;19932;-46
2021/12/31 11:35:58;;;;;;;;;;;13.20;99.90;;;;;;5064290;28;19920;-47
2021/12/31 11:38:26;;;;;;;;;;;13.20;99.90;;;;;;5055130;28;19909;-46
2021/12/31 11:40:57;;;;;;;;;;;13.20;99.90;;;;;;5054647;28;19970;-46
2021/12/31 11:43:27;;;;;;;;;;;13.20;99.90;;;;;;5054520;28;20364;-46
2021/12/31 11:46:15;;;;;;;;;;;13.20;99.90;;;;;;5054915;28;19913;-46
2021/12/31 11:48:52;;;;;;;;;;;13.20;99.90;;;;;;5061793;28;19966;-47
2021/12/31 11:51:22;;;;;;;;;;;13.20;99.90;;;;;;5062184;28;19913;-46
2021/12/31 11:53:59;;;;;;;;;;;13.20;99.90;;;;;;5074834;28;19908;-49
2021/12/31 11:56:37;;;;;;;;;;;13.10;99.90;;;;;;5060679;28;19909;-47
2021/12/31 11:59:08;;;;;;;;;;;13.10;99.90;;;;;;5053792;28;19912;-45
2021/12/31 12:01:37;;;;;;;;;;;13.10;99.90;;;;;;5053253;28;19978;-47
2021/12/31 12:04:20;;;;;;;;;;;13.10;99.90;;;;;;5053536;28;19916;-46
2021/12/31 12:06:56;;;;;;;;;;;13.20;99.90;;;;;;5053884;28;20359;-46
2021/12/31 12:09:22;;;;;;;;;;;13.20;99.90;;;;;;5053809;28;19909;-48
2021/12/31 12:12:00;;;;;;;;;;;13.20;99.90;;;;;;5053206;28;19916;-47
2021/12/31 12:14:38;;;;;;;;;;;13.20;99.90;;;;;;5068122;28;20309;-46
2021/12/31 12:17:04;;;;;;;;;;;13.20;99.90;;;;;;5073193;28;19916;-46
2021/12/31 12:19:51;;;;;;;;;;;13.10;99.90;;;;;;5073200;28;19920;-45
2021/12/31 12:22:28;;;;;;;;;;;13.10;99.90;;;;;;5073612;28;20415;-44
2021/12/31 12:24:58;;;;;;;;;;;13.00;99.90;;;;;;5073005;28;19912;-46
2021/12/31 12:27:24;;;;;;;;;;;12.90;99.90;;;;;;5073325;28;19909;-49
2021/12/31 12:29:50;;;;;;;;;;;12.80;99.90;;;;;;5073603;28;19908;-43
2021/12/31 12:32:18;;;;;;;;;;;12.70;99.90;;;;;;5072981;28;19909;-44
2021/12/31 12:34:43;;;;;;;;;;;12.60;99.90;;;;;;5073017;28;19909;-43
2021/12/31 12:37:09;;;;;;;;;;;12.50;99.90;;;;;;5073012;28;20279;-43
2021/12/31 12:39:34;;;;;;;;;;;12.50;99.90;;;;;;5071996;28;20014;-43
2021/12/31 12:42:00;;;;;;;;;;;12.40;99.90;;;;;;5073105;28;20009;-42
2021/12/31 12:44:25;;;;;;;;;;;12.50;99.90;;;;;;5057358;28;20012;-46
2021/12/31 12:46:52;;;;;;;;;;;12.40;99.90;;;;;;5052622;28;20378;-44
2021/12/31 12:49:18;;;;;;;;;;;12.30;99.90;;;;;;5052699;28;19915;-44
2021/12/31 12:51:44;;;;;;;;;;;12.30;99.90;;;;;;5053928;28;19913;-44
2021/12/31 12:54:13;;;;;;;;;;;12.30;99.90;;;;;;5052570;28;19915;-44
2021/12/31 12:56:39;;;;;;;;;;;12.30;99.90;;;;;;5052727;28;20280;-44
2021/12/31 12:59:05;;;;;;;;;;;12.30;99.90;;;;;;5050931;28;19912;-46
2021/12/31 13:01:37;;;;;;;;;;;12.30;99.90;;;;;;5052667;28;19917;-44
2021/12/31 13:04:03;;;;;;;;;;;12.20;99.90;;;;;;5052768;28;19947;-44
2021/12/31 13:06:29;;;;;;;;;;;12.30;99.90;;;;;;5051894;28;19925;-47
2021/12/31 13:09:05;;;;;;;;;;;12.20;99.90;;;;;;5052868;28;19931;-45
2021/12/31 13:11:31;;;;;;;;;;;12.30;99.90;;;;;;5052346;28;19963;-45
2021/12/31 13:13:57;;;;;;;;;;;12.20;99.90;;;;;;5059255;28;19913;-46
2021/12/31 13:16:22;;;;;;;;;;;12.30;99.90;;;;;;5057322;28;19917;-46
2021/12/31 13:18:55;;;;;;;;;;;12.20;99.90;;;;;;5052421;28;19913;-46
2021/12/31 13:21:28;;;;;;;;;;;12.20;99.90;;;;;;5051254;28;21339;-46
2021/12/31 13:23:54;;;;;;;;;;;12.20;99.90;;;;;;5052881;28;19912;-49
2021/12/31 13:26:24;;;;;;;;;;;12.30;99.90;;;;;;5052696;28;20008;-48
2021/12/31 13:28:50;;;;;;;;;;;12.20;99.90;;;;;;5051944;28;19912;-48
2021/12/31 13:31:16;;;;;;;;;;;12.20;99.90;;;;;;5056300;28;19909;-48
2021/12/31 13:33:43;;;;;;;;;;;12.20;99.90;;;;;;5072542;28;20287;-52
2021/12/31 13:36:10;;;;;;;;;;;12.20;99.90;;;;;;5072110;28;19916;-48
2021/12/31 13:38:54;;;;;;;;;;;12.20;99.90;;;;;;5072401;28;19908;-51
2021/12/31 13:41:21;;;;;;;;;;;12.20;99.90;;;;;;5071793;28;19917;-48
2021/12/31 13:43:56;;;;;;;;;;;12.20;99.90;;;;;;5062139;28;20364;-48
2021/12/31 13:46:28;;;;;;;;;;;12.20;99.90;;;;;;5068575;28;19920;-49
2021/12/31 13:49:09;;;;;;;;;;;12.20;99.90;;;;;;5069520;28;19970;-48
2021/12/31 13:51:36;;;;;;;;;;;12.30;99.90;;;;;;5064442;28;20353;-48
2021/12/31 13:54:02;;;;;;;;;;;12.20;99.90;;;;;;5070899;28;19913;-46
2021/12/31 13:56:47;;;;;;;;;;;12.30;99.90;;;;;;5070112;28;19912;-50
2021/12/31 13:59:15;;;;;;;;;;;12.20;99.90;;;;;;5071318;28;19917;-48
2021/12/31 14:02:00;;;;;;;;;;;12.30;99.90;;;;;;5070488;28;19920;-47
2021/12/31 14:04:26;;;;;;;;;;;12.20;99.90;;;;;;5063208;28;20519;-46
2021/12/31 14:06:55;;;;;;;;;;;12.20;99.90;;;;;;5070984;28;19909;-45
2021/12/31 14:09:21;;;;;;;;;;;12.20;99.90;;;;;;5069538;28;19908;-47
2021/12/31 14:11:46;;;;;;;;;;;12.20;99.90;;;;;;5065669;28;19919;-46
2021/12/31 14:14:12;;;;;;;;;;;12.20;99.90;;;;;;5070773;28;19912;-46